AirportContent of METAR report
LYBEMETAR LYBE 230800Z VRB01KT 7000 BKN016 M00/M02 Q1038 NOSIG=
LYBTMETAR LYBT 230800Z VRB02KT 8000 BKN015 00/M03 Q1038 NOSIG=
LYKVMETAR LYKV 230800Z 33005KT 300V010 8000 SCT013 BKN025 M00/M00 Q1037 NOSIG=
LYNIMETAR LYNI 230800Z 33016KT 6000 BKN010 M00/M03 Q1035 NOSIG=
LYVRMETAR LYVR 230800Z 33008KT 5000 BR OVC008 M00/M02 Q1037 NOSIG=
LYUZMETAR LYUZ 230800Z 30007KT 270V330 8000 BKN004 M03/M12 Q1032=
LYPGMETAR LYPG 230800Z VRB02KT CAVOK 01/M03 Q1029 NOSIG=
LYTVMETAR LYTV 230800Z 00000KT CAVOK 04/03 Q1029 NOSIG=

Data loaded: 2020-01-23 08:22:14 UTC

METAR, TAF, AIRMET, GAMET, SIGMET

Important note: MET information on these web pages are informative and restricted to aeronautical users, must not be used for any commercial purpose, and do not replace flight documentation.